createdAt,value
2023-08-19T00:00:47.943Z,0.00
2023-08-19T00:01:47.946Z,0.00
2023-08-19T00:02:47.954Z,0.00
2023-08-19T00:03:47.923Z,0.00
2023-08-19T00:04:47.912Z,0.00
2023-08-19T00:05:47.869Z,0.00
2023-08-19T00:06:47.861Z,0.00
2023-08-19T00:07:47.846Z,0.00
2023-08-19T00:08:47.844Z,0.00
2023-08-19T00:09:47.850Z,0.00
2023-08-19T00:10:47.862Z,0.00
2023-08-19T00:11:47.800Z,0.00
2023-08-19T00:12:47.814Z,0.00
2023-08-19T00:13:47.778Z,0.00
2023-08-19T00:14:47.775Z,0.00
2023-08-19T00:15:47.778Z,0.00
2023-08-19T00:16:47.807Z,0.00
2023-08-19T00:17:47.764Z,0.00
2023-08-19T00:18:47.722Z,0.00
2023-08-19T00:19:47.716Z,0.00
2023-08-19T00:20:47.710Z,0.00
2023-08-19T00:21:47.692Z,0.00
2023-08-19T00:22:47.737Z,0.00
2023-08-19T00:23:47.689Z,0.00
2023-08-19T00:24:47.662Z,0.00
2023-08-19T00:25:47.663Z,0.00
2023-08-19T00:26:47.654Z,0.00
2023-08-19T00:27:47.639Z,0.00
2023-08-19T00:28:47.639Z,0.00
2023-08-19T00:29:47.619Z,0.00
2023-08-19T00:30:47.633Z,0.00
2023-08-19T00:31:47.594Z,0.00
2023-08-19T00:32:47.613Z,0.00
2023-08-19T00:33:47.580Z,0.00
2023-08-19T00:34:47.554Z,0.00
2023-08-19T00:35:47.536Z,0.00
2023-08-19T00:36:47.558Z,0.00
2023-08-19T00:37:47.516Z,0.00
2023-08-19T00:38:47.513Z,0.00
2023-08-19T00:39:47.497Z,0.00
2023-08-19T00:40:47.482Z,0.00
2023-08-19T00:41:47.474Z,0.00
2023-08-19T00:42:47.490Z,0.00
2023-08-19T00:43:47.465Z,0.00
2023-08-19T00:44:47.457Z,0.00
2023-08-19T00:45:47.431Z,0.00
2023-08-19T00:46:47.431Z,0.00
2023-08-19T00:47:47.426Z,0.00
2023-08-19T00:48:47.430Z,0.00
2023-08-19T00:49:47.387Z,0.00
2023-08-19T00:50:47.373Z,0.00
2023-08-19T00:51:47.381Z,0.00
2023-08-19T00:52:47.354Z,0.00
2023-08-19T00:53:47.343Z,0.00
2023-08-19T00:54:47.332Z,0.00
2023-08-19T00:55:47.326Z,0.00
2023-08-19T00:56:47.317Z,0.00
2023-08-19T00:57:47.315Z,0.00
2023-08-19T00:58:47.317Z,0.00
2023-08-19T00:59:47.279Z,0.00
2023-08-19T01:00:47.268Z,0.00
2023-08-19T01:01:47.263Z,0.00
2023-08-19T01:02:47.304Z,0.00
2023-08-19T01:03:47.326Z,0.00
2023-08-19T01:04:47.239Z,0.00
2023-08-19T01:05:47.210Z,0.00
2023-08-19T01:06:47.215Z,0.00
2023-08-19T01:07:47.184Z,0.00
2023-08-19T01:08:47.197Z,0.00
2023-08-19T01:09:47.161Z,0.00
2023-08-19T01:10:47.173Z,0.00
2023-08-19T01:11:47.136Z,0.00
2023-08-19T01:12:47.127Z,0.00
2023-08-19T01:13:47.121Z,0.00
2023-08-19T01:14:47.140Z,0.00
2023-08-19T01:15:47.106Z,0.00
2023-08-19T01:16:47.084Z,0.00
2023-08-19T01:17:47.160Z,0.00
2023-08-19T01:18:47.064Z,0.00
2023-08-19T01:19:47.058Z,0.00
2023-08-19T01:20:47.048Z,0.00
2023-08-19T01:21:47.036Z,0.00
2023-08-19T01:22:47.019Z,0.00
2023-08-19T01:23:47.042Z,0.00
2023-08-19T01:24:46.995Z,0.00
2023-08-19T01:25:46.996Z,0.00
2023-08-19T01:26:46.974Z,0.00
2023-08-19T01:27:46.960Z,0.00
2023-08-19T01:28:46.963Z,0.00
2023-08-19T01:29:46.952Z,0.00
2023-08-19T01:30:46.948Z,0.00
2023-08-19T01:31:46.970Z,0.00
2023-08-19T01:32:46.985Z,0.00
2023-08-19T01:33:46.908Z,0.00
2023-08-19T01:34:46.924Z,0.00
2023-08-19T01:35:46.879Z,0.00
2023-08-19T01:36:46.866Z,0.00
2023-08-19T01:37:46.869Z,0.00
2023-08-19T01:38:46.863Z,0.00
2023-08-19T01:39:46.838Z,0.00
2023-08-19T01:40:46.831Z,0.00
2023-08-19T01:41:46.814Z,0.00
2023-08-19T01:42:46.827Z,0.00
2023-08-19T01:43:46.801Z,0.00
2023-08-19T01:44:46.790Z,0.00
2023-08-19T01:45:46.826Z,0.00
2023-08-19T01:46:46.776Z,0.00
2023-08-19T01:47:46.764Z,0.00
2023-08-19T01:48:46.772Z,0.00
2023-08-19T01:49:46.728Z,0.00
2023-08-19T01:50:46.707Z,0.00
2023-08-19T01:51:46.710Z,0.00
2023-08-19T01:52:46.703Z,0.00
2023-08-19T01:53:46.680Z,0.00
2023-08-19T01:54:46.680Z,0.00
2023-08-19T01:55:46.656Z,0.00
2023-08-19T01:56:46.644Z,0.00
2023-08-19T01:57:46.632Z,0.00
2023-08-19T01:58:46.636Z,0.00
2023-08-19T01:59:46.626Z,0.00
2023-08-19T02:00:46.602Z,0.00
2023-08-19T02:01:46.595Z,0.00
2023-08-19T02:02:46.658Z,0.00
2023-08-19T02:03:46.569Z,0.00
2023-08-19T02:04:46.590Z,0.00
2023-08-19T02:05:46.579Z,0.00
2023-08-19T02:06:46.536Z,0.00
2023-08-19T02:07:46.587Z,0.00
2023-08-19T02:08:46.534Z,0.00
2023-08-19T02:09:46.537Z,0.00
2023-08-19T02:10:46.518Z,0.00
2023-08-19T02:11:46.478Z,0.00
2023-08-19T02:12:46.529Z,0.00
2023-08-19T02:13:46.534Z,0.00
2023-08-19T02:14:46.445Z,0.00
2023-08-19T02:15:46.556Z,0.00
2023-08-19T02:16:46.426Z,0.00
2023-08-19T02:17:46.511Z,0.00
2023-08-19T02:18:46.566Z,0.00
2023-08-19T02:19:46.393Z,0.00
2023-08-19T02:20:46.404Z,0.00
2023-08-19T02:21:46.367Z,0.00
2023-08-19T02:22:46.369Z,0.00
2023-08-19T02:23:46.354Z,0.00
2023-08-19T02:24:46.337Z,0.00
2023-08-19T02:29:27.758Z,0.00
2023-08-19T02:30:27.742Z,0.00
2023-08-19T02:31:27.850Z,0.00
2023-08-19T02:32:27.755Z,0.00
2023-08-19T02:33:27.714Z,0.00
2023-08-19T02:34:27.739Z,0.00
2023-08-19T02:35:27.693Z,0.00
2023-08-19T02:36:27.675Z,0.00
2023-08-19T02:37:27.692Z,0.00
2023-08-19T02:38:27.651Z,0.00
2023-08-19T02:39:27.654Z,0.00
2023-08-19T02:40:27.636Z,0.00
2023-08-19T02:41:27.619Z,0.00
2023-08-19T02:42:27.660Z,0.00
2023-08-19T02:43:27.592Z,0.00
2023-08-19T02:44:27.585Z,0.00
2023-08-19T02:45:27.572Z,0.00
2023-08-19T02:46:27.631Z,0.00
2023-08-19T02:47:27.616Z,0.00
2023-08-19T02:48:27.605Z,0.00
2023-08-19T02:49:27.550Z,0.00
2023-08-19T02:50:27.543Z,0.00
2023-08-19T02:51:27.515Z,0.00
2023-08-19T02:52:27.496Z,0.00
2023-08-19T02:53:27.503Z,0.00
2023-08-19T02:54:27.472Z,0.00
2023-08-19T02:55:27.472Z,0.00
2023-08-19T02:56:27.455Z,0.00
2023-08-19T02:57:27.463Z,0.00
2023-08-19T02:58:27.427Z,0.00
2023-08-19T02:59:27.428Z,0.00
2023-08-19T03:00:27.406Z,0.00
2023-08-19T03:01:27.393Z,0.00
2023-08-19T03:02:27.425Z,0.00
2023-08-19T03:03:27.490Z,0.00
2023-08-19T03:04:27.378Z,0.00
2023-08-19T03:05:27.352Z,0.00
2023-08-19T03:06:27.373Z,0.00
2023-08-19T03:07:27.347Z,0.00
2023-08-19T03:08:27.318Z,0.00
2023-08-19T03:09:27.369Z,0.00
2023-08-19T03:10:27.290Z,0.00
2023-08-19T03:11:27.291Z,0.00
2023-08-19T03:12:27.274Z,0.00
2023-08-19T03:13:27.267Z,0.00
2023-08-19T03:14:27.249Z,0.00
2023-08-19T03:15:27.258Z,0.00
2023-08-19T03:16:27.281Z,0.00
2023-08-19T03:17:27.234Z,0.00
2023-08-19T03:18:27.208Z,0.00
2023-08-19T03:19:27.198Z,0.00
2023-08-19T03:20:27.201Z,0.00
2023-08-19T03:21:27.177Z,0.00
2023-08-19T03:22:27.177Z,0.00
2023-08-19T03:23:27.157Z,0.00
2023-08-19T03:24:27.160Z,0.00
2023-08-19T03:25:27.123Z,0.00
2023-08-19T03:26:27.174Z,0.00
2023-08-19T03:27:27.105Z,0.00
2023-08-19T03:28:27.107Z,0.00
2023-08-19T03:29:27.081Z,0.00
2023-08-19T03:30:27.080Z,0.00
2023-08-19T03:31:27.088Z,0.00
2023-08-19T03:32:27.060Z,0.00
2023-08-19T03:33:27.095Z,0.00
2023-08-19T03:34:27.078Z,0.00
2023-08-19T03:35:27.060Z,0.00
2023-08-19T03:36:27.037Z,0.00
2023-08-19T03:37:26.993Z,0.00
2023-08-19T03:38:27.006Z,0.00
2023-08-19T03:39:26.987Z,0.00
2023-08-19T03:40:26.966Z,0.00
2023-08-19T03:41:26.961Z,0.00
2023-08-19T03:42:26.960Z,0.00
2023-08-19T03:43:26.932Z,0.00
2023-08-19T03:44:26.914Z,0.00
2023-08-19T03:45:26.902Z,0.00
2023-08-19T03:46:26.930Z,0.00
2023-08-19T03:47:26.910Z,0.00
2023-08-19T03:48:26.870Z,0.00
2023-08-19T03:49:26.861Z,0.00
2023-08-19T03:50:26.877Z,0.00
2023-08-19T03:51:26.846Z,0.00
2023-08-19T03:52:26.849Z,0.00
2023-08-19T03:53:26.869Z,0.00
2023-08-19T03:54:26.825Z,4.00
2023-08-19T03:55:26.809Z,0.00
2023-08-19T03:56:26.797Z,0.00
2023-08-19T03:57:26.776Z,4.00
2023-08-19T03:58:26.770Z,4.00
2023-08-19T03:59:26.752Z,0.00
2023-08-19T04:00:26.735Z,4.00
2023-08-19T04:01:26.808Z,4.00
2023-08-19T04:02:26.808Z,4.00
2023-08-19T04:03:26.718Z,4.00
2023-08-19T04:04:26.730Z,4.00
2023-08-19T04:05:26.680Z,4.00
2023-08-19T04:06:26.667Z,4.00
2023-08-19T04:07:26.651Z,8.00
2023-08-19T04:08:26.669Z,8.00
2023-08-19T04:09:26.631Z,8.00
2023-08-19T04:10:26.661Z,12.00
2023-08-19T04:11:26.633Z,12.00
2023-08-19T04:12:26.634Z,16.00
2023-08-19T04:13:26.594Z,16.00
2023-08-19T04:14:26.605Z,20.00
2023-08-19T04:15:26.573Z,20.00
2023-08-19T04:16:26.599Z,28.00
2023-08-19T04:17:26.579Z,28.00
2023-08-19T04:18:26.590Z,28.00
2023-08-19T04:19:26.531Z,32.00
2023-08-19T04:20:26.519Z,36.00
2023-08-19T04:21:28.051Z,40.00
2023-08-19T04:22:26.491Z,44.00
2023-08-19T04:23:26.571Z,48.00
2023-08-19T04:24:26.467Z,52.00
2023-08-19T04:25:26.461Z,56.00
2023-08-19T04:26:26.567Z,64.00
2023-08-19T04:27:26.433Z,72.00
2023-08-19T04:28:26.443Z,76.00
2023-08-19T04:29:26.413Z,88.00
2023-08-19T04:30:26.424Z,96.00
2023-08-19T04:31:26.392Z,108.00
2023-08-19T04:32:26.405Z,112.00
2023-08-19T04:33:26.416Z,120.00
2023-08-19T04:34:26.381Z,132.00
2023-08-19T04:35:26.340Z,144.00
2023-08-19T04:36:26.336Z,156.00
2023-08-19T04:37:26.338Z,168.00
2023-08-19T04:38:26.322Z,180.00
2023-08-19T04:39:26.306Z,188.00
2023-08-19T04:40:26.318Z,200.00
2023-08-19T04:41:26.272Z,204.00
2023-08-19T04:42:26.289Z,208.00
2023-08-19T04:43:26.250Z,220.00
2023-08-19T04:44:26.250Z,228.00
2023-08-19T04:45:26.241Z,236.00
2023-08-19T04:46:26.217Z,248.00
2023-08-19T04:47:26.283Z,264.00
2023-08-19T04:48:26.220Z,272.00
2023-08-19T04:49:26.185Z,292.00
2023-08-19T04:50:26.188Z,316.00
2023-08-19T04:51:26.170Z,316.00
2023-08-19T04:52:26.150Z,352.00
2023-08-19T04:53:26.140Z,368.00
2023-08-19T04:54:26.156Z,372.00
2023-08-19T04:55:26.125Z,408.00
2023-08-19T04:56:26.135Z,440.00
2023-08-19T04:57:26.093Z,428.00
2023-08-19T04:58:26.116Z,468.00
2023-08-19T04:59:26.089Z,516.00
2023-08-19T05:00:26.066Z,508.00
2023-08-19T05:01:26.119Z,528.00
2023-08-19T05:02:26.040Z,560.00
2023-08-19T05:03:26.025Z,588.00
2023-08-19T05:04:26.064Z,576.00
2023-08-19T05:05:26.019Z,548.00
2023-08-19T05:06:26.020Z,516.00
2023-08-19T05:07:25.982Z,484.00
2023-08-19T05:08:25.998Z,464.00
2023-08-19T05:09:25.961Z,444.00
2023-08-19T05:10:25.961Z,416.00
2023-08-19T05:11:25.963Z,388.00
2023-08-19T05:12:25.930Z,364.00
2023-08-19T05:13:25.950Z,340.00
2023-08-19T05:14:25.929Z,316.00
2023-08-19T05:15:25.904Z,296.00
2023-08-19T05:16:25.953Z,288.00
2023-08-19T05:17:25.904Z,276.00
2023-08-19T05:18:25.861Z,260.00
2023-08-19T05:19:25.886Z,252.00
2023-08-19T05:20:25.839Z,252.00
2023-08-19T05:21:25.830Z,248.00
2023-08-19T05:22:25.824Z,268.00
2023-08-19T05:23:25.814Z,300.00
2023-08-19T05:24:25.800Z,284.00
2023-08-19T05:25:25.784Z,324.00
2023-08-19T05:26:25.808Z,324.00
2023-08-19T05:27:25.764Z,324.00
2023-08-19T05:28:25.768Z,368.00
2023-08-19T05:29:25.738Z,412.00
2023-08-19T05:30:25.845Z,436.00
2023-08-19T05:31:25.750Z,416.00
2023-08-19T05:32:25.716Z,496.00
2023-08-19T05:33:25.715Z,440.00
2023-08-19T05:34:25.678Z,448.00
2023-08-19T05:35:25.686Z,432.00
2023-08-19T05:36:25.659Z,404.00
2023-08-19T05:37:25.650Z,448.00
2023-08-19T05:38:25.663Z,376.00
2023-08-19T05:39:25.625Z,352.00
2023-08-19T05:40:25.617Z,364.00
2023-08-19T05:41:25.608Z,396.00
2023-08-19T05:42:25.601Z,404.00
2023-08-19T05:43:25.614Z,360.00
2023-08-19T05:44:25.584Z,392.00
2023-08-19T05:45:25.615Z,412.00
2023-08-19T05:46:25.573Z,484.00
2023-08-19T05:47:25.585Z,392.00
2023-08-19T05:48:25.529Z,420.00
2023-08-19T05:49:25.548Z,380.00
2023-08-19T05:50:25.514Z,436.00
2023-08-19T05:51:25.486Z,464.00
2023-08-19T05:52:25.487Z,512.00
2023-08-19T05:53:25.474Z,556.00
2023-08-19T05:54:25.476Z,600.00
2023-08-19T05:55:25.460Z,672.00
2023-08-19T05:56:25.433Z,720.00
2023-08-19T05:57:25.450Z,764.00
2023-08-19T05:58:25.411Z,812.00
2023-08-19T05:59:25.415Z,852.00
2023-08-19T06:00:25.414Z,912.00
2023-08-19T06:01:25.406Z,940.00
2023-08-19T06:02:25.385Z,968.00
2023-08-19T06:03:25.429Z,1044.00
2023-08-19T06:04:25.364Z,1152.00
2023-08-19T06:05:25.353Z,1304.00
2023-08-19T06:06:25.338Z,1480.00
2023-08-19T06:07:25.312Z,1664.00
2023-08-19T06:08:25.303Z,1928.00
2023-08-19T06:09:25.292Z,2132.00
2023-08-19T06:10:25.299Z,3980.00
2023-08-19T06:11:25.279Z,5212.00
2023-08-19T06:12:25.276Z,4692.00
2023-08-19T06:13:25.248Z,8772.00
2023-08-19T06:14:25.233Z,10640.00
2023-08-19T06:15:25.253Z,11392.00
2023-08-19T06:16:25.223Z,11672.00
2023-08-19T06:17:25.242Z,7040.00
2023-08-19T06:18:25.341Z,11232.00
2023-08-19T06:19:25.185Z,11344.00
2023-08-19T06:20:25.183Z,9892.00
2023-08-19T06:21:25.170Z,3808.00
2023-08-19T06:22:25.153Z,7764.00
2023-08-19T06:23:25.133Z,9588.00
2023-08-19T06:24:25.118Z,3196.00
2023-08-19T06:25:25.109Z,2300.00
2023-08-19T06:26:25.123Z,1720.00
2023-08-19T06:27:25.083Z,1420.00
2023-08-19T06:28:25.110Z,1228.00
2023-08-19T06:29:25.080Z,1024.00
2023-08-19T06:30:25.056Z,956.00
2023-08-19T06:31:25.077Z,744.00
2023-08-19T06:32:25.056Z,720.00
2023-08-19T06:33:25.015Z,720.00
2023-08-19T06:34:25.041Z,728.00
2023-08-19T06:35:25.012Z,748.00
2023-08-19T06:36:24.995Z,772.00
2023-08-19T06:37:25.177Z,820.00
2023-08-19T06:38:24.974Z,784.00
2023-08-19T06:39:24.949Z,760.00
2023-08-19T06:40:24.936Z,772.00
2023-08-19T06:41:24.931Z,748.00
2023-08-19T06:42:24.914Z,720.00
2023-08-19T06:43:24.927Z,748.00
2023-08-19T06:44:24.896Z,764.00
2023-08-19T06:45:24.884Z,804.00
2023-08-19T06:46:24.904Z,852.00
2023-08-19T06:47:25.276Z,904.00
2023-08-19T06:48:24.851Z,936.00
2023-08-19T06:49:24.861Z,1012.00
2023-08-19T06:50:24.866Z,1044.00
2023-08-19T06:51:24.814Z,1136.00
2023-08-19T06:52:24.820Z,1208.00
2023-08-19T06:53:24.819Z,1304.00
2023-08-19T06:54:24.793Z,1188.00
2023-08-19T06:55:24.793Z,1192.00
2023-08-19T06:56:24.759Z,1204.00
2023-08-19T06:57:24.753Z,1208.00
2023-08-19T06:58:24.747Z,1148.00
2023-08-19T06:59:24.754Z,1132.00
2023-08-19T07:00:24.729Z,1076.00
2023-08-19T07:01:24.701Z,1048.00
2023-08-19T07:02:24.710Z,968.00
2023-08-19T07:03:24.744Z,1056.00
2023-08-19T07:04:24.685Z,1148.00
2023-08-19T07:05:24.668Z,1036.00
2023-08-19T07:06:24.672Z,1000.00
2023-08-19T07:07:24.632Z,1020.00
2023-08-19T07:08:24.628Z,988.00
2023-08-19T07:09:24.656Z,952.00
2023-08-19T07:10:24.605Z,932.00
2023-08-19T07:11:24.605Z,884.00
2023-08-19T07:12:24.584Z,860.00
2023-08-19T07:13:24.586Z,856.00
2023-08-19T07:14:24.556Z,888.00
2023-08-19T07:15:24.563Z,972.00
2023-08-19T07:16:24.587Z,980.00
2023-08-19T07:17:24.531Z,1044.00
2023-08-19T07:18:24.508Z,1060.00
2023-08-19T07:19:24.528Z,1100.00
2023-08-19T07:20:24.489Z,1496.00
2023-08-19T07:21:24.488Z,1164.00
2023-08-19T07:22:24.483Z,1000.00
2023-08-19T07:23:24.470Z,984.00
2023-08-19T07:24:24.447Z,1012.00
2023-08-19T07:25:24.433Z,940.00
2023-08-19T07:26:24.415Z,904.00
2023-08-19T07:27:24.435Z,880.00
2023-08-19T07:28:24.402Z,884.00
2023-08-19T07:29:24.385Z,892.00
2023-08-19T07:30:24.372Z,896.00
2023-08-19T07:31:24.363Z,900.00
2023-08-19T07:32:24.412Z,892.00
2023-08-19T07:33:24.343Z,868.00
2023-08-19T07:34:24.333Z,860.00
2023-08-19T07:35:24.326Z,840.00
2023-08-19T07:36:24.301Z,824.00
2023-08-19T07:37:24.294Z,808.00
2023-08-19T07:38:24.338Z,848.00
2023-08-19T07:39:24.274Z,880.00
2023-08-19T07:40:24.265Z,904.00
2023-08-19T07:41:24.252Z,924.00
2023-08-19T07:42:24.237Z,928.00
2023-08-19T07:43:24.237Z,928.00
2023-08-19T07:44:24.252Z,928.00
2023-08-19T07:45:24.247Z,920.00
2023-08-19T07:46:24.458Z,900.00
2023-08-19T07:47:24.232Z,884.00
2023-08-19T07:48:24.196Z,876.00
2023-08-19T07:49:24.173Z,900.00
2023-08-19T07:50:24.149Z,912.00
2023-08-19T07:51:24.152Z,928.00
2023-08-19T07:52:24.125Z,932.00
2023-08-19T07:53:24.121Z,924.00
2023-08-19T07:54:24.137Z,976.00
2023-08-19T07:55:24.102Z,948.00
2023-08-19T07:56:24.085Z,944.00
2023-08-19T07:57:24.067Z,900.00
2023-08-19T07:58:24.064Z,940.00
2023-08-19T07:59:24.096Z,980.00
2023-08-19T08:00:24.050Z,1016.00
2023-08-19T08:01:24.068Z,1020.00
2023-08-19T08:02:26.182Z,1020.00
2023-08-19T08:03:24.031Z,1004.00
2023-08-19T08:04:24.001Z,968.00
2023-08-19T08:05:24.108Z,980.00
2023-08-19T08:06:23.975Z,860.00
2023-08-19T08:07:23.973Z,780.00
2023-08-19T08:08:23.956Z,760.00
2023-08-19T08:09:24.019Z,784.00
2023-08-19T08:10:23.955Z,808.00
2023-08-19T08:11:23.916Z,800.00
2023-08-19T08:12:23.907Z,784.00
2023-08-19T08:13:23.903Z,760.00
2023-08-19T08:14:23.891Z,724.00
2023-08-19T08:15:23.910Z,660.00
2023-08-19T08:16:23.899Z,636.00
2023-08-19T08:17:23.865Z,644.00
2023-08-19T08:18:23.865Z,652.00
2023-08-19T08:19:23.837Z,668.00
2023-08-19T08:20:23.819Z,688.00
2023-08-19T08:21:23.819Z,708.00
2023-08-19T08:22:23.791Z,720.00
2023-08-19T08:23:23.779Z,724.00
2023-08-19T08:24:23.782Z,692.00
2023-08-19T08:25:23.783Z,680.00
2023-08-19T08:26:23.777Z,680.00
2023-08-19T08:27:23.735Z,664.00
2023-08-19T08:28:23.731Z,640.00
2023-08-19T08:29:23.719Z,696.00
2023-08-19T08:30:23.717Z,752.00
2023-08-19T08:31:23.723Z,792.00
2023-08-19T08:32:23.737Z,832.00
2023-08-19T08:33:23.684Z,864.00
2023-08-19T08:34:23.679Z,848.00
2023-08-19T08:35:23.647Z,900.00
2023-08-19T08:36:23.633Z,832.00
2023-08-19T08:37:23.628Z,816.00
2023-08-19T08:38:23.642Z,856.00
2023-08-19T08:39:23.632Z,936.00
2023-08-19T08:40:23.598Z,956.00
2023-08-19T08:41:23.579Z,984.00
2023-08-19T08:42:23.596Z,1008.00
2023-08-19T08:43:23.578Z,1032.00
2023-08-19T08:44:23.544Z,1060.00
2023-08-19T08:45:23.557Z,1076.00
2023-08-19T08:46:23.536Z,1084.00
2023-08-19T08:47:23.508Z,1188.00
2023-08-19T08:48:23.500Z,1268.00
2023-08-19T08:49:23.506Z,1236.00
2023-08-19T08:50:23.490Z,1352.00
2023-08-19T08:51:23.475Z,1512.00
2023-08-19T08:52:23.462Z,1724.00
2023-08-19T08:53:23.443Z,1772.00
2023-08-19T08:54:23.435Z,1920.00
2023-08-19T08:55:23.450Z,1876.00
2023-08-19T08:56:23.404Z,1860.00
2023-08-19T08:57:23.403Z,1916.00
2023-08-19T08:58:23.413Z,1944.00
2023-08-19T08:59:23.374Z,2028.00
2023-08-19T09:00:23.380Z,2240.00
2023-08-19T09:01:23.384Z,2196.00
2023-08-19T09:02:23.355Z,2160.00
2023-08-19T09:03:23.335Z,2212.00
2023-08-19T09:04:23.352Z,2224.00
2023-08-19T09:05:23.327Z,2132.00
2023-08-19T09:06:25.052Z,2080.00
2023-08-19T09:07:23.312Z,1996.00
2023-08-19T09:08:23.271Z,1808.00
2023-08-19T09:09:23.264Z,1656.00
2023-08-19T09:10:23.262Z,1672.00
2023-08-19T09:11:23.252Z,1708.00
2023-08-19T09:12:23.240Z,1764.00
2023-08-19T09:13:23.216Z,1948.00
2023-08-19T09:14:23.235Z,1896.00
2023-08-19T09:15:23.194Z,1940.00
2023-08-19T09:16:23.195Z,2008.00
2023-08-19T09:17:23.185Z,2064.00
2023-08-19T09:18:23.166Z,2100.00
2023-08-19T09:19:23.190Z,2052.00
2023-08-19T09:20:23.152Z,2736.00
2023-08-19T09:21:23.134Z,2228.00
2023-08-19T09:22:23.153Z,2012.00
2023-08-19T09:23:23.106Z,2220.00
2023-08-19T09:24:23.116Z,2532.00
2023-08-19T09:25:23.114Z,2484.00
2023-08-19T09:26:23.072Z,3180.00
2023-08-19T09:27:23.060Z,3392.00
2023-08-19T09:28:23.076Z,3028.00
2023-08-19T09:29:23.041Z,2364.00
2023-08-19T09:30:23.050Z,2236.00
2023-08-19T09:31:23.069Z,2432.00
2023-08-19T09:32:23.023Z,2416.00
2023-08-19T09:33:23.004Z,2380.00
2023-08-19T09:34:23.000Z,2424.00
2023-08-19T09:35:22.980Z,2336.00
2023-08-19T09:36:22.959Z,2324.00
2023-08-19T09:37:22.972Z,2404.00
2023-08-19T09:38:22.943Z,2356.00
2023-08-19T09:39:22.940Z,2252.00
2023-08-19T09:40:22.931Z,2140.00
2023-08-19T09:41:22.924Z,1836.00
2023-08-19T09:42:22.906Z,1948.00
2023-08-19T09:43:22.886Z,1924.00
2023-08-19T09:44:22.908Z,1948.00
2023-08-19T09:45:22.859Z,2100.00
2023-08-19T09:46:22.885Z,1944.00
2023-08-19T09:47:22.866Z,2060.00
2023-08-19T09:48:22.829Z,2548.00
2023-08-19T09:49:22.829Z,2604.00
2023-08-19T09:50:22.814Z,2356.00
2023-08-19T09:51:22.833Z,2204.00
2023-08-19T09:52:22.807Z,1848.00
2023-08-19T09:53:22.779Z,2020.00
2023-08-19T09:54:22.766Z,1916.00
2023-08-19T09:55:22.819Z,1932.00
2023-08-19T09:56:22.738Z,1936.00
2023-08-19T09:57:22.726Z,1876.00
2023-08-19T09:58:22.751Z,2492.00
2023-08-19T09:59:22.724Z,2860.00
2023-08-19T10:00:22.693Z,3472.00
2023-08-19T10:01:22.706Z,2416.00
2023-08-19T10:02:22.709Z,2900.00
2023-08-19T10:03:22.871Z,2864.00
2023-08-19T10:04:22.916Z,3856.00
2023-08-19T10:05:22.740Z,2960.00
2023-08-19T10:06:22.639Z,2556.00
2023-08-19T10:07:22.614Z,2932.00
2023-08-19T10:08:22.603Z,2904.00
2023-08-19T10:09:22.609Z,3188.00
2023-08-19T10:10:22.617Z,3872.00
2023-08-19T10:11:22.585Z,2852.00
2023-08-19T10:12:22.560Z,2480.00
2023-08-19T10:13:22.572Z,2480.00
2023-08-19T10:14:22.553Z,2388.00
2023-08-19T10:15:22.555Z,2316.00
2023-08-19T10:16:22.521Z,2132.00
2023-08-19T10:17:22.505Z,2172.00
2023-08-19T10:18:22.530Z,2360.00
2023-08-19T10:19:22.493Z,2212.00
2023-08-19T10:20:22.468Z,1948.00
2023-08-19T10:21:22.471Z,1800.00
2023-08-19T10:22:22.448Z,1744.00
2023-08-19T10:23:22.494Z,1808.00
2023-08-19T10:24:22.441Z,1624.00
2023-08-19T10:25:22.419Z,1564.00
2023-08-19T10:26:22.422Z,1616.00
2023-08-19T10:27:22.397Z,1700.00
2023-08-19T10:28:22.405Z,1708.00
2023-08-19T10:29:22.376Z,1908.00
2023-08-19T10:30:22.377Z,2120.00
2023-08-19T10:31:22.467Z,2672.00
2023-08-19T10:32:22.344Z,2088.00
2023-08-19T10:33:22.328Z,2092.00
2023-08-19T10:34:22.338Z,2332.00
2023-08-19T10:35:22.325Z,2100.00
2023-08-19T10:36:22.290Z,2096.00
2023-08-19T10:37:22.293Z,2220.00
2023-08-19T10:38:22.336Z,2344.00
2023-08-19T10:39:22.263Z,2576.00
2023-08-19T10:40:22.252Z,2444.00
2023-08-19T10:41:22.246Z,2528.00
2023-08-19T10:42:22.248Z,2644.00
2023-08-19T10:43:22.216Z,3420.00
2023-08-19T10:44:22.201Z,2596.00
2023-08-19T10:45:22.219Z,2592.00
2023-08-19T10:46:22.290Z,2380.00
2023-08-19T10:47:22.192Z,2116.00
2023-08-19T10:48:22.167Z,2136.00
2023-08-19T10:49:22.147Z,2252.00
2023-08-19T10:50:22.166Z,2028.00
2023-08-19T10:51:22.143Z,1820.00
2023-08-19T10:52:22.122Z,2020.00
2023-08-19T10:53:22.124Z,1904.00
2023-08-19T10:54:22.094Z,1828.00
2023-08-19T10:55:22.086Z,1668.00
2023-08-19T10:56:22.070Z,1680.00
2023-08-19T10:57:22.067Z,1668.00
2023-08-19T10:58:22.069Z,1604.00
2023-08-19T10:59:22.040Z,1528.00
2023-08-19T11:00:22.028Z,1552.00
2023-08-19T11:01:22.030Z,1548.00
2023-08-19T11:02:22.024Z,1468.00
2023-08-19T11:03:22.010Z,1392.00
2023-08-19T11:04:22.032Z,1436.00
2023-08-19T11:05:21.975Z,1484.00
2023-08-19T11:06:21.980Z,1488.00
2023-08-19T11:07:21.965Z,1480.00
2023-08-19T11:08:21.941Z,1560.00
2023-08-19T11:09:21.938Z,1840.00
2023-08-19T11:10:21.928Z,1844.00
2023-08-19T11:11:21.904Z,1688.00
2023-08-19T11:12:21.943Z,1676.00
2023-08-19T11:13:21.891Z,1672.00
2023-08-19T11:14:21.884Z,1624.00
2023-08-19T11:15:21.876Z,1484.00
2023-08-19T11:16:21.877Z,1492.00
2023-08-19T11:17:21.863Z,1484.00
2023-08-19T11:18:21.844Z,1408.00
2023-08-19T11:19:21.833Z,1300.00
2023-08-19T11:20:21.818Z,1304.00
2023-08-19T11:21:21.822Z,1376.00
2023-08-19T11:22:21.804Z,1312.00
2023-08-19T11:23:21.774Z,1372.00
2023-08-19T11:24:21.762Z,1236.00
2023-08-19T11:25:21.753Z,1236.00
2023-08-19T11:26:21.757Z,1220.00
2023-08-19T11:27:21.744Z,1120.00
2023-08-19T11:28:21.716Z,1092.00
2023-08-19T11:29:21.713Z,1108.00
2023-08-19T11:30:21.714Z,1088.00
2023-08-19T11:31:21.710Z,944.00
2023-08-19T11:32:21.853Z,944.00
2023-08-19T11:33:24.103Z,992.00
2023-08-19T11:34:21.670Z,1036.00
2023-08-19T11:35:21.639Z,964.00
2023-08-19T11:36:21.632Z,964.00
2023-08-19T11:37:21.637Z,956.00
2023-08-19T11:38:21.629Z,956.00
2023-08-19T11:39:21.591Z,956.00
2023-08-19T11:40:29.697Z,916.00
2023-08-19T11:41:22.568Z,876.00
2023-08-19T11:42:21.571Z,896.00
2023-08-19T11:43:21.562Z,916.00
2023-08-19T11:44:21.557Z,936.00
2023-08-19T11:45:21.530Z,888.00
2023-08-19T11:46:21.578Z,836.00
2023-08-19T11:47:21.581Z,896.00
2023-08-19T11:48:21.493Z,956.00
2023-08-19T11:49:21.500Z,928.00
2023-08-19T11:50:21.468Z,868.00
2023-08-19T11:51:22.910Z,788.00
2023-08-19T11:52:21.488Z,852.00
2023-08-19T11:53:21.465Z,860.00
2023-08-19T11:54:21.470Z,872.00
2023-08-19T11:55:21.425Z,816.00
2023-08-19T11:56:24.177Z,776.00
2023-08-19T11:57:21.394Z,816.00
2023-08-19T11:58:21.399Z,848.00
2023-08-19T11:59:21.371Z,744.00
2023-08-19T12:00:21.389Z,760.00
2023-08-19T12:01:21.404Z,716.00
2023-08-19T12:02:22.473Z,720.00
2023-08-19T12:03:21.410Z,724.00
2023-08-19T12:04:21.326Z,652.00
2023-08-19T12:05:21.304Z,612.00
2023-08-19T12:06:21.309Z,644.00
2023-08-19T12:07:21.284Z,688.00
2023-08-19T12:08:23.155Z,704.00
2023-08-19T12:09:21.284Z,652.00
2023-08-19T12:10:21.273Z,624.00
2023-08-19T12:11:21.239Z,668.00
2023-08-19T12:12:21.234Z,720.00
2023-08-19T12:13:21.248Z,672.00
2023-08-19T12:14:21.219Z,712.00
2023-08-19T12:15:21.205Z,732.00
2023-08-19T12:16:21.352Z,804.00
2023-08-19T12:17:21.180Z,852.00
2023-08-19T12:18:21.164Z,820.00
2023-08-19T12:19:21.160Z,812.00
2023-08-19T12:20:21.178Z,884.00
2023-08-19T12:21:21.148Z,972.00
2023-08-19T12:22:21.123Z,1056.00
2023-08-19T12:23:21.112Z,1112.00
2023-08-19T12:24:21.098Z,1164.00
2023-08-19T12:25:21.091Z,1080.00
2023-08-19T12:26:21.110Z,1072.00
2023-08-19T12:27:21.066Z,1072.00
2023-08-19T12:28:21.055Z,1004.00
2023-08-19T12:29:21.038Z,908.00
2023-08-19T12:30:21.037Z,912.00
2023-08-19T12:31:21.063Z,932.00
2023-08-19T12:32:21.021Z,836.00
2023-08-19T12:33:21.169Z,732.00
2023-08-19T12:34:20.984Z,728.00
2023-08-19T12:35:20.995Z,684.00
2023-08-19T12:36:21.061Z,688.00
2023-08-19T12:37:20.946Z,648.00
2023-08-19T12:38:20.954Z,604.00
2023-08-19T12:39:20.927Z,592.00
2023-08-19T12:40:20.911Z,636.00
2023-08-19T12:41:20.923Z,680.00